createdAt,value
2023-03-17T00:01:17.389Z,2.77
2023-03-17T00:04:05.924Z,2.87
2023-03-17T00:06:55.124Z,2.13
2023-03-17T00:09:43.488Z,1.93
2023-03-17T00:12:34.269Z,2.13
2023-03-17T00:15:23.347Z,1.70
2023-03-17T00:18:13.303Z,2.10
2023-03-17T00:21:02.109Z,2.13
2023-03-17T00:23:51.820Z,3.57
2023-03-17T00:26:41.040Z,2.37
2023-03-17T00:29:30.767Z,2.03
2023-03-17T00:32:20.285Z,2.53
2023-03-17T00:35:18.709Z,2.00
2023-03-17T00:38:08.120Z,2.37
2023-03-17T00:40:56.429Z,1.97
2023-03-17T00:43:44.894Z,1.90
2023-03-17T00:46:37.975Z,1.80
2023-03-17T00:49:26.813Z,2.00
2023-03-17T00:52:15.448Z,2.07
2023-03-17T00:55:03.843Z,1.90
2023-03-17T00:57:52.171Z,1.90
2023-03-17T01:00:40.907Z,1.70
2023-03-17T01:03:33.082Z,2.10
2023-03-17T01:06:21.582Z,1.80
2023-03-17T01:09:13.319Z,2.03
2023-03-17T01:12:01.676Z,1.80
2023-03-17T01:14:50.096Z,1.90
2023-03-17T01:17:39.506Z,1.97
2023-03-17T01:20:31.507Z,2.00
2023-03-17T01:23:20.527Z,1.83
2023-03-17T01:26:09.596Z,2.00
2023-03-17T01:28:58.979Z,1.77
2023-03-17T01:31:47.761Z,1.87
2023-03-17T01:34:36.172Z,1.80
2023-03-17T01:37:27.034Z,2.20
2023-03-17T01:40:18.286Z,1.57
2023-03-17T01:43:20.049Z,2.20
2023-03-17T01:46:23.127Z,2.67
2023-03-17T01:49:17.084Z,2.20
2023-03-17T01:52:09.250Z,2.30
2023-03-17T01:55:03.741Z,2.07
2023-03-17T01:57:54.776Z,1.90
2023-03-17T02:00:44.019Z,1.87
2023-03-17T02:03:33.186Z,1.80
2023-03-17T02:06:22.202Z,1.80
2023-03-17T02:09:10.967Z,1.67
2023-03-17T02:12:02.119Z,1.50
2023-03-17T02:14:51.566Z,1.80
2023-03-17T02:17:39.936Z,2.27
2023-03-17T02:21:11.069Z,1.80
2023-03-17T02:24:02.269Z,1.67
2023-03-17T02:26:50.927Z,1.70
2023-03-17T02:29:39.675Z,1.60
2023-03-17T02:32:30.163Z,1.80
2023-03-17T02:35:19.095Z,1.53
2023-03-17T02:38:07.669Z,2.03
2023-03-17T02:40:57.440Z,1.80
2023-03-17T02:43:46.442Z,2.10
2023-03-17T02:46:34.759Z,1.80
2023-03-17T02:49:23.630Z,2.13
2023-03-17T02:52:12.111Z,1.70
2023-03-17T02:55:00.611Z,1.70
2023-03-17T02:57:50.265Z,2.00
2023-03-17T03:00:39.320Z,1.70
2023-03-17T03:03:27.720Z,1.73
2023-03-17T03:06:16.444Z,1.70
2023-03-17T03:09:05.687Z,2.17
2023-03-17T03:11:54.520Z,1.30
2023-03-17T03:14:44.227Z,1.97
2023-03-17T03:17:32.594Z,1.63
2023-03-17T03:20:21.240Z,2.30
2023-03-17T03:23:09.622Z,2.00
2023-03-17T03:25:58.018Z,1.87
2023-03-17T03:28:46.372Z,1.67
2023-03-17T03:31:36.057Z,1.90
2023-03-17T03:34:24.473Z,2.10
2023-03-17T03:37:12.906Z,1.70
2023-03-17T03:40:01.442Z,1.50
2023-03-17T03:42:49.845Z,1.50
2023-03-17T03:45:38.110Z,1.60
2023-03-17T03:48:27.902Z,1.77
2023-03-17T03:51:16.177Z,1.73
2023-03-17T03:54:04.736Z,1.80
2023-03-17T03:56:53.008Z,2.07
2023-03-17T03:59:41.321Z,1.60
2023-03-17T04:02:29.830Z,1.83
2023-03-17T04:05:20.419Z,1.70
2023-03-17T04:08:09.091Z,1.60
2023-03-17T04:10:57.638Z,1.83
2023-03-17T04:13:45.980Z,2.10
2023-03-17T04:16:34.505Z,1.80
2023-03-17T04:19:23.554Z,1.97
2023-03-17T04:22:13.843Z,1.60
2023-03-17T04:25:02.221Z,2.37
2023-03-17T04:27:50.990Z,1.83
2023-03-17T04:30:39.341Z,1.90
2023-03-17T04:33:27.731Z,1.80
2023-03-17T04:36:20.417Z,1.93
2023-03-17T04:39:10.829Z,1.90
2023-03-17T04:41:59.382Z,2.37
2023-03-17T04:44:47.740Z,2.10
2023-03-17T04:47:36.688Z,1.77
2023-03-17T04:50:25.168Z,1.70
2023-03-17T04:53:13.523Z,1.57
2023-03-17T04:56:03.278Z,1.87
2023-03-17T04:58:51.624Z,2.10
2023-03-17T05:01:40.185Z,1.73
2023-03-17T05:04:32.054Z,2.30
2023-03-17T05:07:20.927Z,2.00
2023-03-17T05:10:12.371Z,1.80
2023-03-17T05:13:02.649Z,2.33
2023-03-17T05:15:51.901Z,1.77
2023-03-17T05:18:41.797Z,1.90
2023-03-17T05:21:30.150Z,1.83
2023-03-17T05:24:18.598Z,2.13
2023-03-17T05:27:07.132Z,2.20
2023-03-17T05:29:56.902Z,1.97
2023-03-17T05:32:45.658Z,1.93
2023-03-17T05:35:34.242Z,1.80
2023-03-17T05:38:22.635Z,1.80
2023-03-17T05:41:12.288Z,2.27
2023-03-17T05:44:00.928Z,1.93
2023-03-17T05:46:51.248Z,2.07
2023-03-17T05:49:39.698Z,2.07
2023-03-17T05:52:28.357Z,2.50
2023-03-17T05:55:17.571Z,1.70
2023-03-17T05:58:06.663Z,2.20
2023-03-17T06:00:55.315Z,2.53
2023-03-17T06:03:45.199Z,2.90
2023-03-17T06:06:33.964Z,2.43
2023-03-17T06:09:22.381Z,1.80
2023-03-17T06:12:11.415Z,2.50
2023-03-17T06:14:59.830Z,2.07
2023-03-17T06:17:48.402Z,2.37
2023-03-17T06:20:38.205Z,1.93
2023-03-17T06:23:26.581Z,2.27
2023-03-17T06:26:15.067Z,1.90
2023-03-17T06:29:03.516Z,2.03
2023-03-17T06:31:52.401Z,2.03
2023-03-17T06:34:41.910Z,1.87
2023-03-17T06:37:31.783Z,2.00
2023-03-17T06:40:20.258Z,2.30
2023-03-17T06:43:09.939Z,1.80
2023-03-17T06:45:58.268Z,2.10
2023-03-17T06:48:46.637Z,1.53
2023-03-17T06:51:37.225Z,1.87
2023-03-17T06:54:27.284Z,1.80
2023-03-17T06:57:15.911Z,2.50
2023-03-17T07:00:06.369Z,1.83
2023-03-17T07:02:54.805Z,2.17
2023-03-17T07:05:43.615Z,1.90
2023-03-17T07:08:32.040Z,1.93
2023-03-17T07:11:23.616Z,1.60
2023-03-17T07:14:12.183Z,1.87
2023-03-17T07:17:00.911Z,1.63
2023-03-17T07:19:49.635Z,2.07
2023-03-17T07:22:38.059Z,1.70
2023-03-17T07:25:26.512Z,1.80
2023-03-17T07:28:16.869Z,1.60
2023-03-17T07:31:07.883Z,2.20
2023-03-17T07:33:57.478Z,1.73
2023-03-17T07:36:46.086Z,1.90
2023-03-17T07:39:34.820Z,1.77
2023-03-17T07:42:23.233Z,1.80
2023-03-17T07:45:13.396Z,2.00
2023-03-17T07:48:01.779Z,1.80
2023-03-17T07:50:50.833Z,2.00
2023-03-17T07:53:39.186Z,1.70
2023-03-17T07:56:27.595Z,2.17
2023-03-17T07:59:16.095Z,2.13
2023-03-17T08:02:06.758Z,1.50
2023-03-17T08:04:55.221Z,2.10
2023-03-17T08:07:43.867Z,1.60
2023-03-17T08:10:33.913Z,2.60
2023-03-17T08:13:22.511Z,1.87
2023-03-17T08:16:11.069Z,1.50
2023-03-17T08:19:01.050Z,1.90
2023-03-17T08:21:49.634Z,2.10
2023-03-17T08:24:39.712Z,1.77
2023-03-17T08:27:28.158Z,1.60
2023-03-17T08:30:17.275Z,1.80
2023-03-17T08:33:06.112Z,1.83
2023-03-17T08:35:57.951Z,1.60
2023-03-17T08:38:47.213Z,1.77
2023-03-17T08:41:36.956Z,1.70
2023-03-17T08:44:25.379Z,1.50
2023-03-17T08:47:13.840Z,1.77
2023-03-17T08:50:02.300Z,2.00
2023-03-17T08:52:54.329Z,1.20
2023-03-17T08:55:42.726Z,1.43
2023-03-17T08:58:31.309Z,1.50
2023-03-17T09:01:21.035Z,1.83
2023-03-17T09:04:09.815Z,1.10
2023-03-17T09:07:03.854Z,1.20
2023-03-17T09:09:54.032Z,1.20
2023-03-17T09:12:42.807Z,1.50
2023-03-17T09:15:32.246Z,1.47
2023-03-17T09:18:22.184Z,1.23
2023-03-17T09:21:11.778Z,1.13
2023-03-17T09:24:02.452Z,1.20
2023-03-17T09:26:52.441Z,1.20
2023-03-17T09:29:41.237Z,1.20
2023-03-17T09:32:29.604Z,1.40
2023-03-17T09:35:18.008Z,1.07
2023-03-17T09:38:06.974Z,1.10
2023-03-17T09:40:59.048Z,1.10
2023-03-17T09:43:53.334Z,1.00
2023-03-17T09:46:47.419Z,1.30
2023-03-17T09:49:39.498Z,1.20
2023-03-17T09:52:29.762Z,1.30
2023-03-17T09:55:23.984Z,1.57
2023-03-17T09:58:12.990Z,1.10
2023-03-17T10:01:05.174Z,1.17
2023-03-17T10:03:53.645Z,1.40
2023-03-17T10:06:44.171Z,1.40
2023-03-17T10:09:37.117Z,1.10
2023-03-17T10:12:32.885Z,1.30
2023-03-17T10:15:25.328Z,1.20
2023-03-17T10:18:16.716Z,1.63
2023-03-17T10:21:07.936Z,1.20
2023-03-17T10:23:57.521Z,1.20
2023-03-17T10:26:48.442Z,1.30
2023-03-17T10:29:37.094Z,1.07
2023-03-17T10:32:25.716Z,1.23
2023-03-17T10:35:16.183Z,1.50
2023-03-17T10:38:16.250Z,1.37
2023-03-17T10:41:09.871Z,1.20
2023-03-17T10:43:59.390Z,1.20
2023-03-17T10:46:54.429Z,1.20
2023-03-17T10:49:46.129Z,1.27
2023-03-17T10:52:39.635Z,1.10
2023-03-17T10:55:30.921Z,1.00
2023-03-17T10:58:21.790Z,0.97
2023-03-17T11:01:20.075Z,1.10
2023-03-17T11:04:30.304Z,1.10
2023-03-17T11:07:20.293Z,1.10
2023-03-17T11:10:20.374Z,1.10
2023-03-17T11:13:09.505Z,1.10
2023-03-17T11:16:08.622Z,1.03
2023-03-17T11:18:59.804Z,1.30
2023-03-17T11:21:55.684Z,1.00
2023-03-17T11:24:53.799Z,1.20
2023-03-17T11:27:47.106Z,1.10
2023-03-17T11:30:36.911Z,1.00
2023-03-17T11:33:36.346Z,1.10
2023-03-17T11:36:37.303Z,1.10
2023-03-17T11:39:28.305Z,1.10
2023-03-17T11:42:23.341Z,1.50
2023-03-17T11:45:19.077Z,1.20
2023-03-17T11:48:15.552Z,1.00
2023-03-17T11:51:08.328Z,1.10
2023-03-17T11:54:04.636Z,1.03
2023-03-17T11:56:55.748Z,1.10
2023-03-17T11:59:52.053Z,1.00
2023-03-17T12:02:45.826Z,1.20
2023-03-17T12:05:35.868Z,1.40
2023-03-17T12:08:30.531Z,1.07
2023-03-17T12:11:23.204Z,1.10
2023-03-17T12:14:24.079Z,1.30
2023-03-17T12:17:18.530Z,1.13
2023-03-17T12:20:16.430Z,1.00
2023-03-17T12:23:10.478Z,1.20
2023-03-17T12:26:01.663Z,1.10
2023-03-17T12:28:52.922Z,1.20
2023-03-17T12:31:45.766Z,1.30
2023-03-17T12:34:40.474Z,1.17
2023-03-17T12:37:31.122Z,1.20
2023-03-17T12:40:21.376Z,1.03
2023-03-17T12:43:27.820Z,1.30
2023-03-17T12:46:42.134Z,1.40
2023-03-17T12:49:45.185Z,1.20
2023-03-17T12:52:43.966Z,1.23
2023-03-17T12:55:33.880Z,0.90
2023-03-17T12:58:29.479Z,1.10
2023-03-17T13:01:26.448Z,1.10
2023-03-17T13:04:18.728Z,1.30
2023-03-17T13:07:12.508Z,1.20
2023-03-17T13:10:22.240Z,1.30
2023-03-17T13:13:23.288Z,1.10
2023-03-17T13:16:28.022Z,1.00
2023-03-17T13:19:20.187Z,1.30
2023-03-17T13:22:36.435Z,1.20
2023-03-17T13:25:33.441Z,1.37
2023-03-17T13:28:27.076Z,1.13
2023-03-17T13:31:31.761Z,1.10
2023-03-17T13:34:21.628Z,1.20
2023-03-17T13:37:19.368Z,1.30
2023-03-17T13:40:15.677Z,1.27
2023-03-17T13:43:15.045Z,1.30
2023-03-17T13:46:25.507Z,1.20
2023-03-17T13:49:26.582Z,1.27
2023-03-17T13:52:17.548Z,1.00
2023-03-17T13:55:37.928Z,1.20
2023-03-17T13:58:27.476Z,1.00
2023-03-17T14:01:16.461Z,1.10
2023-03-17T14:04:10.649Z,1.30
2023-03-17T14:07:01.058Z,1.03
2023-03-17T14:09:53.353Z,1.40
2023-03-17T14:12:46.410Z,1.30
2023-03-17T14:15:42.023Z,1.10
2023-03-17T14:18:32.387Z,1.03
2023-03-17T14:21:23.490Z,1.20
2023-03-17T14:24:23.490Z,1.20
2023-03-17T14:27:15.128Z,1.10
2023-03-17T14:30:10.795Z,1.20
2023-03-17T14:33:03.099Z,1.30
2023-03-17T14:35:53.903Z,1.47
2023-03-17T14:38:49.009Z,1.27
2023-03-17T14:41:37.685Z,1.10
2023-03-17T14:44:26.052Z,1.10
2023-03-17T14:47:20.499Z,1.33
2023-03-17T14:50:16.843Z,1.00
2023-03-17T14:53:05.349Z,1.10
2023-03-17T14:55:54.308Z,1.10
2023-03-17T14:58:44.809Z,1.30
2023-03-17T15:01:36.348Z,1.10
2023-03-17T15:04:28.021Z,1.83
2023-03-17T15:07:30.394Z,1.30
2023-03-17T15:10:20.501Z,2.13
2023-03-17T15:13:12.028Z,4.13
2023-03-17T15:16:03.956Z,1.97
2023-03-17T15:18:58.655Z,1.27
2023-03-17T15:21:48.646Z,1.20
2023-03-17T15:24:40.009Z,0.90
2023-03-17T15:27:29.041Z,1.10
2023-03-17T15:30:18.616Z,1.80
2023-03-17T15:33:18.995Z,1.40
2023-03-17T15:36:07.713Z,1.20
2023-03-17T15:38:57.493Z,1.30
2023-03-17T15:41:45.967Z,1.43
2023-03-17T15:44:34.335Z,1.50
2023-03-17T15:47:25.576Z,1.90
2023-03-17T15:50:17.909Z,1.40
2023-03-17T15:53:06.248Z,3.30
2023-03-17T15:55:56.414Z,1.80
2023-03-17T15:58:44.742Z,1.40
2023-03-17T16:01:33.161Z,1.37
2023-03-17T16:04:21.660Z,1.60
2023-03-17T16:07:12.963Z,1.30
2023-03-17T16:10:01.358Z,1.20
2023-03-17T16:12:51.780Z,1.50
2023-03-17T16:15:42.089Z,1.20
2023-03-17T16:18:34.000Z,1.10
2023-03-17T16:21:22.901Z,1.80
2023-03-17T16:24:18.561Z,2.33
2023-03-17T16:27:15.009Z,3.30
2023-03-17T16:30:06.062Z,3.53
2023-03-17T16:32:56.429Z,3.27
2023-03-17T16:35:45.309Z,3.77
2023-03-17T16:38:34.988Z,3.17
2023-03-17T16:41:25.188Z,2.13
2023-03-17T16:44:13.937Z,1.77
2023-03-17T16:47:04.042Z,1.73
2023-03-17T16:49:52.584Z,1.80
2023-03-17T16:52:40.955Z,1.57
2023-03-17T16:55:30.185Z,1.30
2023-03-17T16:58:20.703Z,1.57
2023-03-17T17:01:13.968Z,1.90
2023-03-17T17:04:03.855Z,1.67
2023-03-17T17:06:52.578Z,1.90
2023-03-17T17:09:41.294Z,1.47
2023-03-17T17:12:29.776Z,1.40
2023-03-17T17:15:19.613Z,1.30
2023-03-17T17:18:12.363Z,1.33
2023-03-17T17:21:03.849Z,1.53
2023-03-17T17:23:53.138Z,1.30
2023-03-17T17:26:41.760Z,1.40
2023-03-17T17:29:32.355Z,1.27
2023-03-17T17:32:23.614Z,1.33
2023-03-17T17:35:12.507Z,1.40
2023-03-17T17:38:02.489Z,1.63
2023-03-17T17:40:51.354Z,1.50
2023-03-17T17:43:39.966Z,1.43
2023-03-17T17:46:28.463Z,1.60
2023-03-17T17:49:16.866Z,1.70
2023-03-17T17:52:05.857Z,1.30
2023-03-17T17:54:55.617Z,1.70
2023-03-17T17:57:44.230Z,1.57
2023-03-17T18:00:33.401Z,2.30
2023-03-17T18:03:25.162Z,2.00
2023-03-17T18:06:14.043Z,2.40
2023-03-17T18:09:02.594Z,1.90
2023-03-17T18:11:52.387Z,1.80
2023-03-17T18:14:41.054Z,1.60
2023-03-17T18:17:31.997Z,2.20
2023-03-17T18:20:22.490Z,3.17
2023-03-17T18:23:11.300Z,3.47
2023-03-17T18:26:00.877Z,3.60
2023-03-17T18:28:51.557Z,4.17
2023-03-17T18:31:42.791Z,3.20
2023-03-17T18:34:36.872Z,3.10
2023-03-17T18:37:25.333Z,2.80
2023-03-17T18:40:18.087Z,2.63
2023-03-17T18:43:07.281Z,2.60
2023-03-17T18:45:57.143Z,2.20
2023-03-17T18:48:45.563Z,3.13
2023-03-17T18:51:33.994Z,2.90
2023-03-17T18:54:22.757Z,3.83
2023-03-17T18:57:11.134Z,3.37
2023-03-17T18:59:59.587Z,2.93
2023-03-17T19:02:49.325Z,2.30
2023-03-17T19:05:39.471Z,3.20
2023-03-17T19:08:27.870Z,2.40
2023-03-17T19:11:18.987Z,2.30
2023-03-17T19:14:08.407Z,2.00
2023-03-17T19:16:56.879Z,2.10
2023-03-17T19:19:46.791Z,2.63
2023-03-17T19:22:35.800Z,2.33
2023-03-17T19:25:24.547Z,2.40
2023-03-17T19:28:12.941Z,2.00
2023-03-17T19:31:01.772Z,2.13
2023-03-17T19:33:50.172Z,1.80
2023-03-17T19:36:41.659Z,2.10
2023-03-17T19:39:31.338Z,2.37
2023-03-17T19:42:19.850Z,1.73
2023-03-17T19:45:09.418Z,2.00
2023-03-17T19:47:59.929Z,1.97
2023-03-17T19:50:48.299Z,2.00
2023-03-17T19:53:38.424Z,2.10
2023-03-17T19:56:28.973Z,2.30
2023-03-17T19:59:19.118Z,2.00
2023-03-17T20:02:08.185Z,2.50
2023-03-17T20:04:56.813Z,2.10
2023-03-17T20:07:46.494Z,2.00
2023-03-17T20:10:36.397Z,2.17
2023-03-17T20:13:24.883Z,1.87
2023-03-17T20:16:14.388Z,2.13
2023-03-17T20:19:03.550Z,2.10
2023-03-17T20:21:52.526Z,1.83
2023-03-17T20:24:40.903Z,2.20
2023-03-17T20:27:32.168Z,1.77
2023-03-17T20:30:20.938Z,2.00
2023-03-17T20:33:10.903Z,1.90
2023-03-17T20:35:59.399Z,1.93
2023-03-17T20:38:47.921Z,2.00
2023-03-17T20:41:37.065Z,1.80
2023-03-17T20:44:26.818Z,1.67
2023-03-17T20:47:15.164Z,1.77
2023-03-17T20:50:04.600Z,1.93
2023-03-17T20:52:53.103Z,1.90
2023-03-17T20:55:43.241Z,1.60
2023-03-17T20:58:31.681Z,2.00
2023-03-17T21:01:23.322Z,1.70
2023-03-17T21:04:15.698Z,1.70
2023-03-17T21:07:04.763Z,2.10
2023-03-17T21:09:56.459Z,1.90
2023-03-17T21:12:45.019Z,1.77
2023-03-17T21:15:33.609Z,1.63
2023-03-17T21:18:23.824Z,2.00
2023-03-17T21:21:12.233Z,1.70
2023-03-17T21:24:02.131Z,1.80
2023-03-17T21:26:50.683Z,2.10
2023-03-17T21:29:40.103Z,1.70
2023-03-17T21:32:28.572Z,1.53
2023-03-17T21:35:18.471Z,1.60
2023-03-17T21:38:06.859Z,1.50
2023-03-17T21:40:55.371Z,1.40
2023-03-17T21:43:44.081Z,1.80
2023-03-17T21:46:33.602Z,1.63
2023-03-17T21:49:23.111Z,2.10
2023-03-17T21:52:14.894Z,1.90
2023-03-17T21:55:03.319Z,1.63
2023-03-17T21:57:51.723Z,2.20
2023-03-17T22:00:45.522Z,1.93
2023-03-17T22:03:34.549Z,2.00
2023-03-17T22:06:24.850Z,1.80
2023-03-17T22:09:16.108Z,1.87
2023-03-17T22:12:06.982Z,2.10
2023-03-17T22:14:58.292Z,1.97
2023-03-17T22:17:47.176Z,1.70
2023-03-17T22:20:35.804Z,1.87
2023-03-17T22:23:25.619Z,2.10
2023-03-17T22:26:18.293Z,2.00
2023-03-17T22:29:06.692Z,1.77
2023-03-17T22:31:55.051Z,2.17
2023-03-17T22:34:43.718Z,2.10
2023-03-17T22:37:32.209Z,2.53
2023-03-17T22:40:20.778Z,1.77
2023-03-17T22:43:11.154Z,1.80
2023-03-17T22:45:59.593Z,2.47
2023-03-17T22:48:48.308Z,2.47
2023-03-17T22:51:37.223Z,2.27
2023-03-17T22:54:25.649Z,2.40
2023-03-17T22:57:14.053Z,1.50
2023-03-17T23:00:06.151Z,2.40
2023-03-17T23:02:54.509Z,1.80
2023-03-17T23:05:46.248Z,1.77
2023-03-17T23:08:37.470Z,1.70
2023-03-17T23:11:28.062Z,1.67
2023-03-17T23:14:16.463Z,2.00
2023-03-17T23:17:07.524Z,1.83
2023-03-17T23:19:56.047Z,2.17
2023-03-17T23:22:44.553Z,2.30
2023-03-17T23:25:33.075Z,1.90
2023-03-17T23:28:21.807Z,1.80
2023-03-17T23:31:11.129Z,1.93
2023-03-17T23:34:01.781Z,1.80
2023-03-17T23:36:50.651Z,1.80
2023-03-17T23:39:40.366Z,1.57
2023-03-17T23:42:29.173Z,2.00
2023-03-17T23:45:18.464Z,1.60
2023-03-17T23:48:07.642Z,1.80
2023-03-17T23:50:57.567Z,1.90
2023-03-17T23:53:46.441Z,2.00
2023-03-17T23:56:34.870Z,2.37
2023-03-17T23:59:23.309Z,2.33
